Time;durP1;ratioP1;P1;durP2;ratioP2;P2;SDS_P1;SDS_P2;PMS_P1;PMS_P2;Temp;Humidity;BMP_temperature;BMP_pressure;BME280_temperature;BME280_humidity;BME280_pressure;Samples;Min_cycle;Max_cycle;Signal;HPM_P1;HPM_P2
2022/05/12 00:01:08;;;;;;;1.85;0.60;;;11.00;99.90;;;;;;4985625;28;20046;-79
2022/05/12 00:03:35;;;;;;;2.03;0.52;;;11.00;99.90;;;;;;4986100;28;20034;-82
2022/05/12 00:06:01;;;;;;;1.95;0.50;;;10.90;99.90;;;;;;4986173;28;20047;-82
2022/05/12 00:08:27;;;;;;;2.92;1.33;;;10.90;99.90;;;;;;4985889;28;20042;-82
2022/05/12 00:10:54;;;;;;;5.15;1.73;;;10.90;99.90;;;;;;5000999;28;20035;-82
2022/05/12 00:13:20;;;;;;;5.15;0.68;;;10.80;99.90;;;;;;4984443;28;20057;-79
2022/05/12 00:15:48;;;;;;;2.97;0.65;;;10.80;99.90;;;;;;4985945;28;20130;-82
2022/05/12 00:18:14;;;;;;;4.32;0.55;;;10.90;99.90;;;;;;4984855;28;20169;-82
2022/05/12 00:20:41;;;;;;;3.33;0.80;;;10.80;99.90;;;;;;4985792;28;20166;-82
2022/05/12 00:23:19;;;;;;;8.25;1.00;;;10.80;99.90;;;;;;4988162;28;20180;-81
2022/05/12 00:25:47;;;;;;;4.70;0.95;;;10.80;99.90;;;;;;4989575;28;20114;-80
2022/05/12 00:28:15;;;;;;;3.92;1.00;;;10.70;99.90;;;;;;4988078;28;20051;-81
2022/05/12 00:30:42;;;;;;;8.43;1.75;;;10.70;99.90;;;;;;5004214;28;20042;-82
2022/05/12 00:33:08;;;;;;;4.25;1.10;;;10.70;99.90;;;;;;4988627;28;20084;-79
2022/05/12 00:35:35;;;;;;;1.73;0.88;;;10.60;99.90;;;;;;4988363;28;20082;-80
2022/05/12 00:38:01;;;;;;;5.78;1.52;;;10.60;99.90;;;;;;4989362;28;20501;-79
2022/05/12 00:40:27;;;;;;;1.17;0.55;;;10.70;99.90;;;;;;4987794;28;20042;-80
2022/05/12 00:43:02;;;;;;;5.07;0.77;;;10.60;99.90;;;;;;4989240;28;20552;-80
2022/05/12 00:45:29;;;;;;;2.85;1.15;;;10.70;99.90;;;;;;4988727;28;20042;-81
2022/05/12 00:47:56;;;;;;;6.47;1.67;;;10.60;99.90;;;;;;4987928;28;20042;-81
2022/05/12 00:50:29;;;;;;;2.80;0.70;;;10.50;99.90;;;;;;4989000;28;20050;-80
2022/05/12 00:52:58;;;;;;;6.28;1.27;;;10.50;99.90;;;;;;4988813;28;20058;-81
2022/05/12 00:55:32;;;;;;;2.08;1.15;;;10.60;99.90;;;;;;4987375;28;20666;-81
2022/05/12 00:58:00;;;;;;;1.40;0.63;;;10.50;99.90;;;;;;4988789;28;20042;-81
2022/05/12 01:00:26;;;;;;;3.63;1.08;;;10.50;99.90;;;;;;4988020;28;20429;-82
2022/05/12 01:02:56;;;;;;;7.78;1.58;;;10.40;99.90;;;;;;4987882;28;20401;-80
2022/05/12 01:05:24;;;;;;;3.97;1.00;;;10.40;99.90;;;;;;4988580;28;20629;-79
2022/05/12 01:07:55;;;;;;;3.15;0.85;;;10.30;99.90;;;;;;4988699;28;20077;-81
2022/05/12 01:10:20;;;;;;;;;;;10.30;99.90;;;;;;4987432;28;20046;-81
2022/05/12 01:12:48;;;;;;;6.57;1.33;;;10.20;99.90;;;;;;4988313;28;19921;-76
2022/05/12 01:15:17;;;;;;;4.43;1.00;;;10.20;99.90;;;;;;4986989;28;20129;-81
2022/05/12 01:17:46;;;;;;;2.95;1.08;;;10.20;99.90;;;;;;4987317;28;20047;-81
2022/05/12 01:20:13;;;;;;;4.55;1.17;;;10.20;99.90;;;;;;4987127;28;20046;-80
2022/05/12 01:22:38;;;;;;;5.63;1.10;;;10.20;99.90;;;;;;4988179;28;20050;-77
2022/05/12 01:25:14;;;;;;;2.42;1.23;;;10.20;99.90;;;;;;4988278;28;20038;-81
2022/05/12 01:27:42;;;;;;;5.72;1.33;;;10.10;99.90;;;;;;4988207;28;20154;-80
2022/05/12 01:30:09;;;;;;;10.18;2.45;;;10.10;99.90;;;;;;4986973;28;20505;-79
2022/05/12 01:32:35;;;;;;;5.93;2.35;;;10.10;99.90;;;;;;4986021;28;20038;-79
2022/05/12 01:35:00;;;;;;;2.90;1.00;;;10.10;99.90;;;;;;4987148;28;20050;-80
2022/05/12 01:37:26;;;;;;;6.68;1.60;;;10.00;99.90;;;;;;4986440;28;20049;-81
2022/05/12 01:43:32;;;;;;;;;;;10.00;99.90;;;;;;4979830;28;20397;-80
2022/05/12 01:46:01;;;;;;;8.82;2.17;;;10.00;99.90;;;;;;4967790;28;19926;-80
2022/05/12 01:48:27;;;;;;;8.63;1.80;;;9.80;99.90;;;;;;4968735;28;20410;-79
2022/05/12 01:50:53;;;;;;;12.50;3.90;;;10.00;99.90;;;;;;4951190;28;20058;-80
2022/05/12 01:53:19;;;;;;;4.40;1.83;;;10.00;99.90;;;;;;4968784;28;20043;-82
2022/05/12 01:55:49;;;;;;;8.30;2.33;;;9.90;99.90;;;;;;4967815;28;20121;-82
2022/05/12 01:58:18;;;;;;;29.27;3.27;;;9.80;99.90;;;;;;4968835;28;20046;-80
2022/05/12 02:00:45;;;;;;;4.97;2.40;;;9.90;99.90;;;;;;4968080;28;20042;-81
2022/05/12 02:03:10;;;;;;;7.07;2.83;;;9.90;99.90;;;;;;4968690;28;20169;-80
2022/05/12 02:05:38;;;;;;;10.88;3.83;;;9.80;99.90;;;;;;4968345;28;20091;-79
2022/05/12 02:08:06;;;;;;;8.57;2.40;;;9.80;99.90;;;;;;4969594;28;20050;-79
2022/05/12 02:10:38;;;;;;;12.57;2.90;;;9.90;99.90;;;;;;4970785;28;20046;-80
2022/05/12 02:13:05;;;;;;;6.32;2.25;;;9.80;99.90;;;;;;4969447;28;20051;-77
2022/05/12 02:15:31;;;;;;;7.65;2.63;;;9.90;99.90;;;;;;4970464;28;20042;-80
2022/05/12 02:17:56;;;;;;;5.32;1.95;;;9.90;99.90;;;;;;4969347;28;20042;-80
2022/05/12 02:20:23;;;;;;;6.05;2.55;;;9.90;99.90;;;;;;4967907;28;20473;-79
2022/05/12 02:22:49;;;;;;;11.07;3.75;;;9.90;99.90;;;;;;4967707;28;20053;-81
2022/05/12 02:25:16;;;;;;;8.20;2.67;;;9.90;99.90;;;;;;4967664;28;20348;-79
2022/05/12 02:27:46;;;;;;;7.85;3.20;;;9.80;99.90;;;;;;4968505;28;20050;-80
2022/05/12 02:30:20;;;;;;;8.32;3.65;;;9.80;99.90;;;;;;4968191;28;20031;-80
2022/05/12 02:32:45;;;;;;;9.55;4.00;;;9.80;99.90;;;;;;4966889;28;20409;-79
2022/05/12 02:35:11;;;;;;;7.30;3.80;;;9.80;99.90;;;;;;4967856;28;20047;-80
2022/05/12 02:37:37;;;;;;;13.43;3.65;;;9.70;99.90;;;;;;4966664;28;20137;-81
2022/05/12 02:40:03;;;;;;;5.95;2.92;;;9.70;99.90;;;;;;4967331;28;20042;-81
2022/05/12 02:42:29;;;;;;;9.55;2.17;;;9.70;99.90;;;;;;4967516;28;20054;-81
2022/05/12 02:44:55;;;;;;;12.23;3.75;;;9.70;99.90;;;;;;4966935;28;20513;-81
2022/05/12 02:47:20;;;;;;;10.65;3.53;;;9.70;99.90;;;;;;4966258;28;20508;-79
2022/05/12 02:49:46;;;;;;;6.88;3.30;;;9.70;99.90;;;;;;4982076;28;20055;-81
2022/05/12 02:52:12;;;;;;;8.77;3.20;;;9.70;99.90;;;;;;4966206;28;20047;-80
2022/05/12 02:54:37;;;;;;;15.30;4.50;;;9.70;99.90;;;;;;4967224;28;20425;-79
2022/05/12 02:57:03;;;;;;;6.32;3.40;;;9.60;99.90;;;;;;4967002;28;20043;-80
2022/05/12 02:59:29;;;;;;;11.00;3.35;;;9.70;99.90;;;;;;4982096;28;20039;-81
2022/05/12 03:01:55;;;;;;;14.88;3.28;;;9.60;99.90;;;;;;4964948;28;20047;-79
2022/05/12 03:04:21;;;;;;;6.72;3.45;;;9.70;99.90;;;;;;4966909;28;20145;-79
2022/05/12 03:06:47;;;;;;;8.07;2.90;;;9.60;99.90;;;;;;4967246;28;20039;-78
2022/05/12 03:09:12;;;;;;;17.67;4.07;;;9.60;99.90;;;;;;4967430;28;20047;-81
2022/05/12 03:11:39;;;;;;;6.53;3.22;;;9.60;99.90;;;;;;4966199;28;20105;-80
2022/05/12 03:14:05;;;;;;;10.73;3.10;;;9.60;99.90;;;;;;4965885;28;20069;-79
2022/05/12 03:16:31;;;;;;;10.07;3.03;;;9.60;99.90;;;;;;4964973;28;20074;-80
2022/05/12 03:18:57;;;;;;;20.15;4.70;;;9.60;99.90;;;;;;4967030;28;20509;-80
2022/05/12 03:21:23;;;;;;;7.65;3.92;;;9.60;99.90;;;;;;4966730;28;20050;-81
2022/05/12 03:23:49;;;;;;;13.05;4.32;;;9.60;99.90;;;;;;4966830;28;20038;-79
2022/05/12 03:26:15;;;;;;;5.78;3.30;;;9.60;99.90;;;;;;4967299;28;20042;-78
2022/05/12 03:28:41;;;;;;;9.93;4.00;;;9.60;99.90;;;;;;4967327;28;20046;-79
2022/05/12 03:31:08;;;;;;;11.55;4.43;;;9.60;99.90;;;;;;4966285;28;20047;-79
2022/05/12 03:33:34;;;;;;;18.48;6.13;;;9.50;99.90;;;;;;4965715;28;20054;-79
2022/05/12 03:36:00;;;;;;;9.95;3.85;;;9.60;99.90;;;;;;4981660;28;20039;-80
2022/05/12 03:38:26;;;;;;;12.40;4.38;;;9.60;99.90;;;;;;4966760;28;20054;-79
2022/05/12 03:40:52;;;;;;;8.18;4.72;;;9.60;99.90;;;;;;4965443;28;20046;-79
2022/05/12 03:46:03;;;;;;;10.95;4.15;;;9.60;99.90;;;;;;4965653;28;20050;-80
2022/05/12 03:48:30;;;;;;;13.15;5.57;;;9.60;99.90;;;;;;4965449;28;20066;-80
2022/05/12 03:50:56;;;;;;;11.25;4.38;;;9.60;99.90;;;;;;4967842;28;20141;-80
2022/05/12 03:53:21;;;;;;;14.45;5.28;;;9.70;99.90;;;;;;4967254;28;20256;-78
2022/05/12 03:55:48;;;;;;;15.77;4.97;;;9.70;99.90;;;;;;4981926;28;20083;-80
2022/05/12 03:58:13;;;;;;;15.93;5.32;;;9.70;99.90;;;;;;4969556;28;20502;-80
2022/05/12 04:00:39;;;;;;;11.13;5.05;;;9.80;99.90;;;;;;4970122;28;20158;-79
2022/05/12 04:03:05;;;;;;;8.57;4.30;;;9.80;99.90;;;;;;4971313;28;20405;-79
2022/05/12 04:05:31;;;;;;;15.95;6.45;;;9.70;99.90;;;;;;4970980;28;20066;-79
2022/05/12 04:07:57;;;;;;;14.82;4.75;;;9.80;99.90;;;;;;4971415;28;20058;-80
2022/05/12 04:10:24;;;;;;;8.63;4.20;;;10.00;99.90;;;;;;4968832;28;20057;-81
2022/05/12 04:12:50;;;;;;;15.88;5.53;;;10.10;99.90;;;;;;4969076;28;20276;-80
2022/05/12 04:15:16;;;;;;;8.82;5.35;;;10.40;99.90;;;;;;4968968;28;20051;-80
2022/05/12 04:17:43;;;;;;;18.08;5.45;;;11.00;99.90;;;;;;4984201;28;20117;-80
2022/05/12 04:20:12;;;;;;;7.95;4.55;;;11.00;99.90;;;;;;4970208;28;20409;-80
2022/05/12 04:22:40;;;;;;;7.13;4.80;;;10.70;99.90;;;;;;4970311;28;20057;-81
2022/05/12 04:25:06;;;;;;;10.00;3.65;;;10.40;99.90;;;;;;4952672;28;20043;-80
2022/05/12 04:27:36;;;;;;;14.25;4.63;;;10.30;99.90;;;;;;4968746;28;20390;-80
2022/05/12 04:30:03;;;;;;;9.05;4.95;;;10.20;99.90;;;;;;4969733;28;20042;-81
2022/05/12 04:32:30;;;;;;;6.90;4.35;;;10.20;99.90;;;;;;4968920;28;20057;-81
2022/05/12 04:35:12;;;;;;;8.45;4.05;;;10.50;99.90;;;;;;4969814;28;20050;-80
2022/05/12 04:37:45;;;;;;;9.27;5.22;;;10.80;99.90;;;;;;4968583;28;20055;-80
2022/05/12 04:40:31;;;;;;;8.60;4.45;;;10.90;99.90;;;;;;4984855;28;20121;-80
2022/05/12 04:42:59;;;;;;;9.48;4.35;;;11.00;99.90;;;;;;4968008;28;20141;-79
2022/05/12 04:45:28;;;;;;;12.80;5.10;;;11.00;99.90;;;;;;4966966;28;20047;-80
2022/05/12 04:47:54;;;;;;;9.10;5.07;;;10.90;99.90;;;;;;4969604;28;20047;-81
2022/05/12 04:50:33;;;;;;;13.07;6.18;;;10.80;99.90;;;;;;4968178;28;20086;-79
2022/05/12 04:53:01;;;;;;;11.82;5.07;;;10.70;99.90;;;;;;4969365;28;20043;-80
2022/05/12 04:55:27;;;;;;;7.60;5.03;;;10.80;99.90;;;;;;4969261;28;20042;-80
2022/05/12 04:57:55;;;;;;;13.15;5.75;;;10.70;99.90;;;;;;4967915;28;20051;-80
2022/05/12 05:00:25;;;;;;;10.52;4.57;;;10.80;99.90;;;;;;4968534;28;20054;-80
2022/05/12 05:02:51;;;;;;;10.77;4.75;;;10.90;99.90;;;;;;4952260;28;20141;-79
2022/05/12 05:05:16;;;;;;;10.63;5.00;;;11.10;99.90;;;;;;4970141;28;20082;-81
2022/05/12 05:07:42;;;;;;;18.77;8.23;;;11.00;99.90;;;;;;4968214;28;20043;-80
2022/05/12 05:10:08;;;;;;;12.00;6.30;;;11.20;99.90;;;;;;4969637;28;20524;-79
2022/05/12 05:12:34;;;;;;;16.08;5.40;;;11.20;99.90;;;;;;4968325;28;20047;-80
2022/05/12 05:15:00;;;;;;;7.38;4.88;;;11.20;99.90;;;;;;4969119;28;20058;-81
2022/05/12 05:17:27;;;;;;;9.18;5.00;;;11.20;99.90;;;;;;4983248;28;20039;-80
2022/05/12 05:19:53;;;;;;;10.68;5.65;;;11.30;99.90;;;;;;4967765;28;20054;-80
2022/05/12 05:22:18;;;;;;;29.63;7.10;;;11.20;99.90;;;;;;4968891;28;20039;-80
2022/05/12 05:24:44;;;;;;;11.15;5.57;;;11.30;99.90;;;;;;4969570;28;20060;-79
2022/05/12 05:27:10;;;;;;;8.85;5.15;;;11.30;99.90;;;;;;4968947;28;20121;-80
2022/05/12 05:29:40;;;;;;;9.70;4.72;;;11.40;99.90;;;;;;4969273;28;20039;-81
2022/05/12 05:32:07;;;;;;;13.70;5.68;;;11.40;99.90;;;;;;4967209;28;20153;-80
2022/05/12 05:34:33;;;;;;;12.35;6.00;;;11.40;99.90;;;;;;4969413;28;20047;-80
2022/05/12 05:36:58;;;;;;;16.30;4.97;;;11.50;99.90;;;;;;4968860;28;20458;-80
2022/05/12 05:39:27;;;;;;;15.15;4.68;;;11.60;99.90;;;;;;4969520;28;20035;-80
2022/05/12 05:42:00;;;;;;;7.30;4.03;;;11.70;99.90;;;;;;4969085;28;20051;-80
2022/05/12 05:44:28;;;;;;;14.80;6.32;;;11.80;99.90;;;;;;4969898;28;20045;-80
2022/05/12 05:46:54;;;;;;;13.48;5.10;;;11.80;99.90;;;;;;4968106;28;20051;-81
2022/05/12 05:49:20;;;;;;;13.25;4.22;;;11.90;99.90;;;;;;4971231;28;21057;-79
2022/05/12 05:54:31;;;;;;;14.50;4.10;;;12.00;99.90;;;;;;4982615;28;20055;-80
2022/05/12 05:56:58;;;;;;;14.00;4.38;;;12.00;99.90;;;;;;4968437;28;20050;-80
2022/05/12 05:59:23;;;;;;;12.75;5.15;;;12.00;99.90;;;;;;4968147;28;20518;-80
2022/05/12 06:01:49;;;;;;;10.95;4.20;;;12.20;99.90;;;;;;4967346;28;20046;-79
2022/05/12 06:04:17;;;;;;;8.57;3.83;;;12.10;99.90;;;;;;4968555;28;20098;-82
2022/05/12 06:06:46;;;;;;;10.68;3.72;;;12.20;99.90;;;;;;4968600;28;20078;-80
2022/05/12 06:09:12;;;;;;;13.13;3.75;;;12.20;99.90;;;;;;4968495;28;20039;-81
2022/05/12 06:11:39;;;;;;;7.72;2.90;;;12.30;99.90;;;;;;4968255;28;20043;-81
2022/05/12 06:14:05;;;;;;;9.23;2.92;;;12.30;99.90;;;;;;4982920;28;20055;-81
2022/05/12 06:16:31;;;;;;;10.32;4.40;;;12.30;99.90;;;;;;4965849;28;20047;-80
2022/05/12 06:18:57;;;;;;;9.48;3.13;;;12.30;99.90;;;;;;4966538;28;20155;-79
2022/05/12 06:21:23;;;;;;;8.05;2.20;;;12.40;99.90;;;;;;4966940;28;20129;-80
2022/05/12 06:23:49;;;;;;;9.85;2.85;;;12.40;99.90;;;;;;4966157;28;20046;-80
2022/05/12 06:26:15;;;;;;;9.40;2.42;;;12.50;99.90;;;;;;4966482;28;20046;-79
2022/05/12 06:28:47;;;;;;;9.38;2.63;;;12.60;99.90;;;;;;4967442;28;20053;-79
2022/05/12 06:31:25;;;;;;;10.32;3.53;;;12.70;99.90;;;;;;4966683;28;20428;-80
2022/05/12 06:33:52;;;;;;;11.20;2.60;;;13.10;99.90;;;;;;4967482;28;20061;-80
2022/05/12 06:36:18;;;;;;;9.73;2.42;;;13.30;99.90;;;;;;4967606;28;20102;-81
2022/05/12 06:38:43;;;;;;;8.32;2.20;;;13.20;99.90;;;;;;4967829;28;20043;-80
2022/05/12 06:41:09;;;;;;;11.32;3.38;;;13.10;99.90;;;;;;4967331;28;20073;-80
2022/05/12 06:43:36;;;;;;;7.30;2.20;;;13.10;99.90;;;;;;4967755;28;20488;-80
2022/05/12 06:46:03;;;;;;;10.32;3.47;;;13.20;99.90;;;;;;4965272;28;20051;-80
2022/05/12 06:48:28;;;;;;;9.40;2.60;;;13.20;99.90;;;;;;4967204;28;20074;-80
2022/05/12 06:50:54;;;;;;;13.57;2.58;;;13.30;99.90;;;;;;4967407;28;20235;-80
2022/05/12 06:53:20;;;;;;;7.75;2.35;;;13.40;99.90;;;;;;4965975;28;20057;-80
2022/05/12 06:55:46;;;;;;;8.70;1.73;;;13.40;99.90;;;;;;4967759;28;20046;-79
2022/05/12 06:58:17;;;;;;;11.45;3.38;;;13.40;99.90;;;;;;4965979;28;20130;-80
2022/05/12 07:00:43;;;;;;;7.97;2.72;;;13.50;99.90;;;;;;4965518;28;20054;-80
2022/05/12 07:03:11;;;;;;;8.73;2.30;;;14.10;99.90;;;;;;4966191;28;20051;-79
2022/05/12 07:05:38;;;;;;;6.55;1.50;;;15.50;99.90;;;;;;4966385;28;20089;-82
2022/05/12 07:08:05;;;;;;;15.98;3.90;;;16.50;99.90;;;;;;4967309;28;20053;-80
2022/05/12 07:10:31;;;;;;;13.25;2.97;;;16.90;99.90;;;;;;4967172;28;20094;-81
2022/05/12 07:12:57;;;;;;;14.35;2.92;;;17.30;99.90;;;;;;4967139;28;20061;-81
2022/05/12 07:15:27;;;;;;;17.27;3.22;;;17.80;99.90;;;;;;4966592;28;20144;-79
2022/05/12 07:17:55;;;;;;;6.35;1.58;;;17.80;99.90;;;;;;4967794;28;20038;-80
2022/05/12 07:28:36;;;;;;;12.60;4.22;;;18.30;99.90;;;;;;4970219;28;20510;-81
2022/05/12 07:31:06;;;;;;;8.77;1.80;;;18.10;99.90;;;;;;4970419;28;20045;-79
2022/05/12 07:33:34;;;;;;;8.48;2.53;;;17.00;99.90;;;;;;4975115;28;20049;-79
2022/05/12 07:36:01;;;;;;;5.25;1.17;;;16.40;99.90;;;;;;4973885;28;20043;-80
2022/05/12 07:38:27;;;;;;;11.52;2.03;;;16.10;99.90;;;;;;4974046;28;20070;-82
2022/05/12 07:40:53;;;;;;;10.77;1.65;;;15.80;99.90;;;;;;4976506;28;20042;-80
2022/05/12 07:43:20;;;;;;;11.45;2.30;;;15.80;99.90;;;;;;4991566;28;20126;-82
2022/05/12 07:45:47;;;;;;;10.57;1.83;;;15.80;99.90;;;;;;4974804;28;20129;-81
2022/05/12 07:48:13;;;;;;;6.57;1.50;;;15.70;99.90;;;;;;4971440;28;20125;-81
2022/05/12 07:50:39;;;;;;;7.65;1.98;;;15.70;99.90;;;;;;4972436;28;20047;-79
2022/05/12 07:53:06;;;;;;;12.43;2.42;;;15.90;99.90;;;;;;4970978;28;20055;-79
2022/05/12 07:55:33;;;;;;;7.18;1.95;;;16.00;99.90;;;;;;4972868;28;20051;-81
2022/05/12 07:58:04;;;;;;;9.07;2.28;;;16.10;99.90;;;;;;4972263;28;20058;-79
2022/05/12 08:00:30;;;;;;;5.60;1.65;;;16.30;99.90;;;;;;4972087;28;20038;-81
2022/05/12 08:02:56;;;;;;;10.00;3.55;;;16.20;99.90;;;;;;4976357;28;20039;-80
2022/05/12 08:05:24;;;;;;;6.07;1.45;;;15.90;99.90;;;;;;4976285;28;20055;-80
2022/05/12 08:07:50;;;;;;;6.53;1.80;;;16.00;99.90;;;;;;4973620;28;20039;-80
2022/05/12 08:10:16;;;;;;;8.27;1.85;;;16.20;99.90;;;;;;4975886;28;20391;-80
2022/05/12 08:12:42;;;;;;;8.57;1.58;;;16.20;99.90;;;;;;4973298;28;20042;-80
2022/05/12 08:15:12;;;;;;;9.25;2.05;;;16.20;99.90;;;;;;4972236;28;20394;-79
2022/05/12 08:17:38;;;;;;;10.43;2.30;;;16.30;99.90;;;;;;4986768;28;20043;-80
2022/05/12 08:20:05;;;;;;;9.52;1.73;;;16.20;99.90;;;;;;4987024;28;20059;-78
2022/05/12 08:22:32;;;;;;;6.43;1.75;;;16.50;99.90;;;;;;4987998;28;20138;-80
2022/05/12 08:24:57;;;;;;;11.25;2.17;;;16.60;99.90;;;;;;4973024;28;20093;-78
2022/05/12 08:27:24;;;;;;;22.10;4.13;;;16.40;99.90;;;;;;4972469;28;20047;-81
2022/05/12 08:29:53;;;;;;;10.55;1.88;;;16.40;99.90;;;;;;4971223;28;20050;-80
2022/05/12 08:32:19;;;;;;;13.77;2.58;;;16.50;99.90;;;;;;4972676;28;20458;-80
2022/05/12 08:34:45;;;;;;;9.07;2.75;;;16.00;99.90;;;;;;4971276;28;20054;-80
2022/05/12 08:37:12;;;;;;;11.90;2.58;;;16.30;99.90;;;;;;4973610;28;20070;-80
2022/05/12 08:39:38;;;;;;;13.40;3.13;;;16.30;99.90;;;;;;4975437;28;20050;-80
2022/05/12 08:42:41;;;;;;;7.25;2.40;;;16.30;99.90;;;;;;4974081;28;20042;-81
2022/05/12 08:45:08;;;;;;;10.20;2.15;;;16.40;99.90;;;;;;4970886;28;20282;-80
2022/05/12 08:47:38;;;;;;;5.88;1.90;;;16.80;99.90;;;;;;4971498;28;20047;-81
2022/05/12 08:50:07;;;;;;;7.95;1.60;;;16.90;99.90;;;;;;4970070;28;20066;-79
2022/05/12 08:52:49;;;;;;;9.65;2.33;;;16.70;99.90;;;;;;4970038;28;20498;-81
2022/05/12 08:55:30;;;;;;;6.22;1.48;;;16.80;99.90;;;;;;4969906;28;20043;-80
2022/05/12 08:57:57;;;;;;;4.18;1.00;;;16.70;99.90;;;;;;4969486;28;20046;-80
2022/05/12 09:00:25;;;;;;;6.13;1.85;;;17.10;99.90;;;;;;4969341;28;20313;-82
2022/05/12 09:02:59;;;;;;;8.15;1.98;;;17.20;99.90;;;;;;4970164;28;20082;-81
2022/05/12 09:05:34;;;;;;;9.10;1.60;;;16.90;99.90;;;;;;4969143;28;20098;-81
2022/05/12 09:08:19;;;;;;;9.90;2.25;;;17.10;99.90;;;;;;4969621;28;20054;-80
2022/05/12 09:10:59;;;;;;;9.60;1.20;;;16.60;99.90;;;;;;4970568;28;20049;-81
2022/05/12 09:13:36;;;;;;;5.57;1.15;;;16.40;99.90;;;;;;4969134;28;20093;-81
2022/05/12 09:16:01;;;;;;;4.63;1.27;;;16.50;99.90;;;;;;4968763;28;20050;-81
2022/05/12 09:18:34;;;;;;;8.43;2.03;;;16.40;99.90;;;;;;4984914;28;20046;-81
2022/05/12 09:21:06;;;;;;;5.13;1.00;;;16.30;99.90;;;;;;4970484;28;20081;-81
2022/05/12 09:23:32;;;;;;;6.47;1.08;;;16.70;99.90;;;;;;4971905;28;20078;-82
2022/05/12 09:25:58;;;;;;;4.60;1.20;;;17.00;99.90;;;;;;4971296;28;20062;-82
2022/05/12 09:28:28;;;;;;;7.65;2.13;;;17.20;99.90;;;;;;4973278;28;20042;-82
2022/05/12 09:30:58;;;;;;;5.07;1.60;;;17.20;99.90;;;;;;4974108;28;20394;-81
2022/05/12 09:33:34;;;;;;;4.88;1.33;;;17.40;99.90;;;;;;4973007;28;20078;-82
2022/05/12 09:36:04;;;;;;;4.88;1.50;;;17.20;99.90;;;;;;4972500;28;20046;-81
2022/05/12 09:38:30;;;;;;;41.47;1.85;;;17.10;99.90;;;;;;4992338;28;20387;-81
2022/05/12 09:40:57;;;;;;;4.70;1.00;;;17.00;99.90;;;;;;4980680;28;20050;-81
2022/05/12 09:43:29;;;;;;;9.43;1.20;;;17.20;99.90;;;;;;4973108;28;20126;-80
2022/05/12 09:46:06;;;;;;;7.60;1.58;;;17.10;99.90;;;;;;4967176;28;20050;-80
2022/05/12 09:48:37;;;;;;;2.63;0.82;;;16.90;99.90;;;;;;4969024;28;20385;-81
2022/05/12 09:51:24;;;;;;;10.70;1.90;;;16.70;99.90;;;;;;4968700;28;20414;-76
2022/05/12 09:53:53;;;;;;;2.85;0.98;;;16.50;99.90;;;;;;4968915;28;20039;-80
2022/05/12 09:56:34;;;;;;;6.72;1.02;;;16.20;99.90;;;;;;4967863;28;20053;-80
2022/05/12 09:59:17;;;;;;;8.80;1.23;;;16.60;99.90;;;;;;4967598;28;20109;-82
2022/05/12 10:07:53;;;;;;;7.55;1.33;;;17.10;99.90;;;;;;4966993;28;20067;-82
2022/05/12 10:08:28;;;;;;;7.13;1.38;;;17.50;99.90;;;;;;4968662;28;20058;-80
2022/05/12 10:11:03;;;;;;;5.13;1.25;;;17.70;99.90;;;;;;4968912;28;20474;-81
2022/05/12 10:13:42;;;;;;;2.55;0.90;;;17.80;99.90;;;;;;4968860;28;20053;-80
2022/05/12 10:16:14;;;;;;;15.80;1.70;;;17.80;99.90;;;;;;4967195;28;20042;-82
2022/05/12 10:18:54;;;;;;;2.10;0.90;;;17.70;99.90;;;;;;4968329;28;20509;-80
2022/05/12 10:21:26;;;;;;;4.10;0.82;;;17.70;99.90;;;;;;4968029;28;20058;-76
2022/05/12 10:23:54;;;;;;;4.20;0.90;;;17.70;99.90;;;;;;4968253;28;20046;-81
2022/05/12 10:26:25;;;;;;;8.80;1.30;;;17.80;99.90;;;;;;4967852;28;20066;-78
2022/05/12 10:29:10;;;;;;;4.22;0.80;;;17.90;99.90;;;;;;4968203;28;20042;-82
2022/05/12 10:31:57;;;;;;;3.28;0.63;;;17.90;99.90;;;;;;4967566;28;20660;-81
2022/05/12 10:34:38;;;;;;;5.93;1.13;;;17.80;99.90;;;;;;4967925;28;20494;-79
2022/05/12 10:37:07;;;;;;;4.40;1.05;;;17.70;99.90;;;;;;4967611;28;20097;-78
2022/05/12 10:40:35;;;;;;;2.15;0.88;;;18.00;99.90;;;;;;4968574;28;20042;-81
2022/05/12 10:43:34;;;;;;;1.98;0.50;;;18.10;99.90;;;;;;4946391;29;20495;-80
2022/05/12 10:46:11;;;;;;;3.92;1.00;;;18.20;99.90;;;;;;4945598;29;20514;-82
2022/05/12 10:48:58;;;;;;;3.33;0.65;;;18.00;99.90;;;;;;4958574;28;20109;-80
2022/05/12 10:51:43;;;;;;;4.68;1.05;;;17.70;99.90;;;;;;4968573;28;20058;-81
2022/05/12 10:54:22;;;;;;;2.38;0.80;;;17.60;99.90;;;;;;4985856;28;20039;-81
2022/05/12 10:57:16;;;;;;;4.22;1.20;;;17.00;99.90;;;;;;4967836;28;20042;-81
2022/05/12 10:59:53;;;;;;;4.57;1.27;;;16.80;99.90;;;;;;4969879;28;20054;-80
2022/05/12 11:02:45;;;;;;;4.18;0.88;;;17.00;99.90;;;;;;4969810;28;20050;-78
2022/05/12 11:05:36;;;;;;;3.92;0.98;;;17.20;99.90;;;;;;4966565;28;20054;-80
2022/05/12 11:08:14;;;;;;;7.05;1.48;;;16.90;99.90;;;;;;4967420;28;20081;-81
2022/05/12 11:10:44;;;;;;;6.18;1.35;;;16.90;99.90;;;;;;4967252;28;20042;-80
2022/05/12 11:13:32;;;;;;;3.78;1.88;;;17.40;99.90;;;;;;4967023;28;20393;-81
2022/05/12 11:16:03;;;;;;;7.00;1.10;;;17.50;99.90;;;;;;4966213;28;20121;-82
2022/05/12 11:18:48;;;;;;;6.45;1.55;;;17.40;99.90;;;;;;4967718;28;20046;-80
2022/05/12 11:21:25;;;;;;;3.35;1.08;;;17.40;99.90;;;;;;4982849;28;20405;-81
2022/05/12 11:24:17;;;;;;;4.22;1.40;;;16.90;99.90;;;;;;4967260;28;20157;-81
2022/05/12 11:27:05;;;;;;;4.88;1.02;;;17.30;99.90;;;;;;4967545;28;20051;-80
2022/05/12 11:29:55;;;;;;;4.63;2.45;;;17.50;99.90;;;;;;4981554;28;20049;-80
2022/05/12 11:32:46;;;;;;;9.25;1.40;;;17.90;99.90;;;;;;4965712;28;20093;-81
2022/05/12 11:35:22;;;;;;;4.07;0.80;;;18.20;99.90;;;;;;4967211;28;20480;-81
2022/05/12 11:37:50;;;;;;;1.63;0.80;;;18.20;99.90;;;;;;4949761;28;20047;-81
2022/05/12 11:40:41;;;;;;;2.25;0.85;;;18.40;99.90;;;;;;4967878;28;20058;-81
2022/05/12 11:46:20;;;;;;;4.68;1.02;;;18.40;99.90;;;;;;4966793;28;20047;-81
2022/05/12 11:49:05;;;;;;;5.32;1.10;;;18.70;99.90;;;;;;4967520;28;20153;-82
2022/05/12 11:51:52;;;;;;;6.60;1.00;;;18.80;99.90;;;;;;4966440;28;20051;-81
2022/05/12 11:54:36;;;;;;;4.15;1.15;;;18.70;99.90;;;;;;4967289;28;20047;-81
2022/05/12 11:57:18;;;;;;;4.10;0.88;;;18.80;99.90;;;;;;4967305;28;20383;-82
2022/05/12 11:59:50;;;;;;;5.00;1.70;;;18.90;99.90;;;;;;4966472;28;20130;-82
2022/05/12 12:02:28;;;;;;;6.22;1.42;;;19.00;99.90;;;;;;4967385;28;20484;-81
2022/05/12 12:04:58;;;;;;;4.32;1.10;;;18.90;99.90;;;;;;4967156;28;20411;-82
2022/05/12 12:07:32;;;;;;;;;;;18.90;99.90;;;;;;4967368;28;20109;-81
2022/05/12 12:10:27;;;;;;;3.42;1.05;;;18.90;99.90;;;;;;4965613;28;19922;-81
2022/05/12 12:13:00;;;;;;;5.80;2.55;;;18.40;99.90;;;;;;4966623;28;20090;-81
2022/05/12 12:15:30;;;;;;;4.72;2.38;;;18.30;99.90;;;;;;4966297;28;20069;-82
2022/05/12 12:18:25;;;;;;;4.03;1.02;;;18.50;99.90;;;;;;4967216;28;20043;-82
2022/05/12 12:20:53;;;;;;;3.05;0.77;;;18.80;99.90;;;;;;4971567;28;20113;-82
2022/05/12 12:23:34;;;;;;;8.73;1.58;;;18.40;99.90;;;;;;4970104;28;20043;-83
2022/05/12 12:26:09;;;;;;;4.15;1.98;;;18.20;99.90;;;;;;4970078;28;20046;-82
2022/05/12 12:28:59;;;;;;;2.85;1.10;;;18.40;99.90;;;;;;4970352;28;20173;-81
2022/05/12 12:31:28;;;;;;;;;;;18.60;99.90;;;;;;4969679;28;20839;-81
2022/05/12 12:34:08;;;;;;;5.10;1.23;;;18.60;99.90;;;;;;4969614;28;19925;-82
2022/05/12 12:36:36;;;;;;;7.32;2.70;;;18.40;99.90;;;;;;4970285;28;20560;-82
2022/05/12 12:39:11;;;;;;;4.28;0.98;;;17.90;99.90;;;;;;4970051;28;20338;-82
2022/05/12 12:41:43;;;;;;;3.30;0.75;;;18.20;99.90;;;;;;4970236;28;20051;-81
2022/05/12 12:44:17;;;;;;;4.18;0.60;;;18.60;99.90;;;;;;4969065;28;20405;-81
2022/05/12 12:47:14;;;;;;;5.35;1.33;;;18.70;99.90;;;;;;4969256;28;20434;-82
2022/05/12 12:49:51;;;;;;;7.10;2.00;;;18.90;99.90;;;;;;4970179;28;20059;-81
2022/05/12 12:52:19;;;;;;;4.93;0.80;;;19.10;99.90;;;;;;4969791;28;20046;-78
2022/05/12 12:57:48;;;;;;;4.28;1.15;;;18.30;99.90;;;;;;4969790;28;20050;-81
2022/05/12 13:00:27;;;;;;;2.97;0.75;;;18.20;99.90;;;;;;4969380;28;20093;-82
2022/05/12 13:03:19;;;;;;;4.03;1.03;;;18.20;99.90;;;;;;4969739;28;20035;-82
2022/05/12 13:05:46;;;;;;;5.75;0.80;;;18.30;99.90;;;;;;4968872;28;20081;-82
2022/05/12 13:08:27;;;;;;;4.65;2.13;;;18.50;99.90;;;;;;4970640;28;20053;-82
2022/05/12 13:10:58;;;;;;;9.50;2.45;;;18.40;99.90;;;;;;4970058;28;20043;-81
2022/05/12 13:13:25;;;;;;;3.15;0.90;;;17.90;99.90;;;;;;4969344;28;20046;-82
2022/05/12 13:15:58;;;;;;;3.22;0.80;;;18.30;99.90;;;;;;4968653;28;20162;-81
2022/05/12 13:18:29;;;;;;;4.93;1.10;;;18.70;99.90;;;;;;4970198;28;20078;-81
2022/05/12 13:20:55;;;;;;;4.25;1.73;;;19.20;99.90;;;;;;4969231;28;20081;-81
2022/05/12 13:23:25;;;;;;;6.28;0.93;;;19.00;99.90;;;;;;4969881;28;20053;-80
2022/05/12 13:25:52;;;;;;;7.95;1.67;;;18.90;99.90;;;;;;4972648;28;20058;-81
2022/05/12 13:28:24;;;;;;;3.00;0.90;;;18.50;99.90;;;;;;4973741;28;20101;-79
2022/05/12 13:31:24;;;;;;;4.18;0.80;;;18.40;99.90;;;;;;4972892;28;20414;-80
2022/05/12 13:34:13;;;;;;;;;;;18.40;99.90;;;;;;4972936;28;20109;-80